Time;durP1;ratioP1;P1;durP2;ratioP2;P2;SDS_P1;SDS_P2;PMS_P1;PMS_P2;Temp;Humidity;BMP_temperature;BMP_pressure;BME280_temperature;BME280_humidity;BME280_pressure;Samples;Min_cycle;Max_cycle;Signal;HPM_P1;HPM_P2
2021/01/03 00:02:00;;;;;;;11.07;5.72;;;;;;;;;;5103271;28;20078;-71
2021/01/03 00:04:26;;;;;;;9.10;5.70;;;;;;;;;;5113075;28;20019;-72
2021/01/03 00:06:53;;;;;;;11.48;6.13;;;;;;;;;;5104272;28;20539;-71
2021/01/03 00:09:19;;;;;;;10.00;6.00;;;;;;;;;;5105597;28;20075;-72
2021/01/03 00:11:45;;;;;;;10.63;5.95;;;;;;;;;;5111936;28;20064;-77
2021/01/03 00:14:11;;;;;;;9.27;6.10;;;;;;;;;;5093495;28;20015;-72
2021/01/03 00:16:37;;;;;;;9.07;5.40;;;;;;;;;;5091092;28;20016;-73
2021/01/03 00:19:04;;;;;;;10.23;6.20;;;;;;;;;;5093917;28;20024;-76
2021/01/03 00:21:31;;;;;;;12.23;5.97;;;;;;;;;;5112605;28;20073;-78
2021/01/03 00:23:57;;;;;;;11.57;6.13;;;;;;;;;;5112025;28;20699;-76
2021/01/03 00:26:23;;;;;;;10.25;5.80;;;;;;;;;;5112497;28;20063;-75
2021/01/03 00:28:49;;;;;;;11.43;6.30;;;;;;;;;;5099332;28;20020;-74
2021/01/03 00:31:15;;;;;;;9.27;5.90;;;;;;;;;;5112773;28;20020;-76
2021/01/03 00:33:41;;;;;;;12.07;5.72;;;;;;;;;;5112310;28;20095;-75
2021/01/03 00:36:07;;;;;;;10.15;6.10;;;;;;;;;;5111023;28;20039;-75
2021/01/03 00:38:33;;;;;;;10.95;6.22;;;;;;;;;;5111710;28;20020;-74
2021/01/03 00:40:59;;;;;;;7.95;5.53;;;;;;;;;;5092939;28;20051;-74
2021/01/03 00:43:26;;;;;;;8.98;5.70;;;;;;;;;;5111060;28;20038;-74
2021/01/03 00:45:52;;;;;;;9.68;5.88;;;;;;;;;;5111337;28;20035;-73
2021/01/03 00:48:18;;;;;;;8.77;5.30;;;;;;;;;;5112437;28;20065;-73
2021/01/03 00:50:44;;;;;;;10.65;5.90;;;;;;;;;;5097722;28;20027;-71
2021/01/03 00:53:11;;;;;;;8.98;5.57;;;;;;;;;;5097223;28;20022;-72
2021/01/03 00:55:37;;;;;;;9.85;5.57;;;;;;;;;;5105408;28;20490;-72
2021/01/03 00:58:03;;;;;;;12.65;5.38;;;;;;;;;;5100035;28;20043;-74
2021/01/03 01:00:33;;;;;;;11.35;5.80;;;;;;;;;;5117907;27;20028;-71
2021/01/03 01:03:00;;;;;;;11.02;5.65;;;;;;;;;;5115306;28;20019;-71
2021/01/03 01:05:27;;;;;;;7.22;5.05;;;;;;;;;;5114937;28;20076;-72
2021/01/03 01:07:53;;;;;;;7.68;4.90;;;;;;;;;;5114927;28;20019;-73
2021/01/03 01:10:23;;;;;;;8.68;5.80;;;;;;;;;;5114773;28;20080;-73
2021/01/03 01:12:50;;;;;;;10.02;5.88;;;;;;;;;;5114853;28;20162;-71
2021/01/03 01:15:20;;;;;;;10.55;5.03;;;;;;;;;;5079314;28;20027;-71
2021/01/03 01:17:46;;;;;;;7.95;5.13;;;;;;;;;;5110402;28;20460;-72
2021/01/03 01:20:13;;;;;;;9.15;5.03;;;;;;;;;;5115163;28;20031;-72
2021/01/03 01:22:39;;;;;;;10.82;5.85;;;;;;;;;;5130819;27;20024;-73
2021/01/03 01:25:06;;;;;;;8.48;5.22;;;;;;;;;;5114833;28;20035;-72
2021/01/03 01:27:32;;;;;;;8.35;5.00;;;;;;;;;;5114692;28;20027;-72
2021/01/03 01:29:58;;;;;;;11.68;5.28;;;;;;;;;;5114484;28;20394;-71
2021/01/03 01:32:24;;;;;;;8.85;5.53;;;;;;;;;;5130406;27;20501;-72
2021/01/03 01:34:50;;;;;;;10.75;5.25;;;;;;;;;;5130378;27;20036;-72
2021/01/03 01:37:16;;;;;;;10.35;5.13;;;;;;;;;;5114687;28;20069;-71
2021/01/03 01:39:43;;;;;;;8.88;5.10;;;;;;;;;;5114717;28;20016;-71
2021/01/03 01:42:09;;;;;;;8.98;4.63;;;;;;;;;;5114685;28;20027;-73
2021/01/03 01:44:35;;;;;;;9.13;5.40;;;;;;;;;;5114438;28;20070;-71
2021/01/03 01:47:06;;;;;;;9.52;4.88;;;;;;;;;;5130321;27;20062;-73
2021/01/03 01:49:38;;;;;;;8.98;4.88;;;;;;;;;;5130194;27;20023;-76
2021/01/03 01:52:04;;;;;;;8.75;5.35;;;;;;;;;;5130279;27;20031;-72
2021/01/03 01:54:31;;;;;;;8.70;4.57;;;;;;;;;;5114455;28;20015;-72
2021/01/03 01:57:03;;;;;;;8.80;4.85;;;;;;;;;;5113728;28;20425;-72
2021/01/03 01:59:32;;;;;;;7.50;4.80;;;;;;;;;;5129384;27;20118;-72
2021/01/03 02:01:58;;;;;;;7.78;4.82;;;;;;;;;;5113648;28;20030;-72
2021/01/03 02:04:35;;;;;;;8.18;5.18;;;;;;;;;;5113495;28;20019;-71
2021/01/03 02:07:12;;;;;;;7.53;4.40;;;;;;;;;;5113587;28;20023;-72
2021/01/03 02:09:46;;;;;;;7.90;4.68;;;;;;;;;;5113322;28;20020;-72
2021/01/03 02:12:15;;;;;;;8.27;4.78;;;;;;;;;;5113320;28;20141;-71
2021/01/03 02:14:41;;;;;;;10.60;4.60;;;;;;;;;;5113387;28;20023;-74
2021/01/03 02:17:07;;;;;;;8.00;5.00;;;;;;;;;;5113403;28;20062;-72
2021/01/03 02:19:35;;;;;;;9.75;5.25;;;;;;;;;;5113098;28;20106;-72
2021/01/03 02:22:04;;;;;;;9.93;4.60;;;;;;;;;;5113175;28;20062;-76
2021/01/03 02:24:38;;;;;;;7.63;4.55;;;;;;;;;;5128982;27;20020;-72
2021/01/03 02:27:09;;;;;;;7.38;4.50;;;;;;;;;;5113981;28;20059;-72
2021/01/03 02:29:36;;;;;;;9.15;4.22;;;;;;;;;;5113665;28;20028;-71
2021/01/03 02:32:03;;;;;;;6.93;4.40;;;;;;;;;;5113575;28;20088;-72
2021/01/03 02:34:34;;;;;;;6.40;4.22;;;;;;;;;;5109744;28;20132;-72
2021/01/03 02:37:06;;;;;;;7.93;4.45;;;;;;;;;;5093195;28;20116;-72
2021/01/03 02:39:54;;;;;;;9.90;4.57;;;;;;;;;;5090504;28;20123;-72
2021/01/03 02:42:24;;;;;;;8.27;4.70;;;;;;;;;;5093105;28;20050;-72
2021/01/03 02:44:50;;;;;;;7.53;4.57;;;;;;;;;;5093051;28;20020;-71
2021/01/03 02:47:17;;;;;;;9.20;4.47;;;;;;;;;;5093018;28;20028;-72
2021/01/03 02:49:43;;;;;;;7.10;4.50;;;;;;;;;;5092700;28;20024;-72
2021/01/03 02:52:12;;;;;;;6.80;3.80;;;;;;;;;;5092793;28;20058;-72
2021/01/03 02:54:38;;;;;;;7.28;4.43;;;;;;;;;;5074410;28;20016;-71
2021/01/03 02:57:05;;;;;;;8.43;4.57;;;;;;;;;;5092703;28;20027;-71
2021/01/03 02:59:31;;;;;;;8.32;4.63;;;;;;;;;;5074487;28;20036;-72
2021/01/03 03:01:57;;;;;;;9.35;4.93;;;;;;;;;;5092752;28;20044;-74
2021/01/03 03:04:23;;;;;;;7.95;4.32;;;;;;;;;;5092691;28;20027;-72
2021/01/03 03:06:49;;;;;;;7.43;4.10;;;;;;;;;;5074397;28;20036;-71
2021/01/03 03:09:15;;;;;;;7.28;4.28;;;;;;;;;;5074296;28;20066;-72
2021/01/03 03:11:45;;;;;;;6.20;3.88;;;;;;;;;;5073930;28;20038;-72
2021/01/03 03:14:11;;;;;;;7.68;4.45;;;;;;;;;;5092541;28;20016;-72
2021/01/03 03:16:37;;;;;;;7.07;4.45;;;;;;;;;;5074244;28;20028;-72
2021/01/03 03:19:03;;;;;;;8.60;4.30;;;;;;;;;;5092203;28;20056;-73
2021/01/03 03:21:29;;;;;;;7.75;4.15;;;;;;;;;;5092291;28;20016;-72
2021/01/03 03:23:55;;;;;;;7.63;4.20;;;;;;;;;;5092323;28;20093;-72
2021/01/03 03:26:21;;;;;;;7.25;4.57;;;;;;;;;;5092141;28;20028;-73
2021/01/03 03:28:47;;;;;;;7.55;4.78;;;;;;;;;;5092158;28;20020;-72
2021/01/03 03:31:13;;;;;;;7.10;4.35;;;;;;;;;;5072750;28;20115;-73
2021/01/03 03:33:39;;;;;;;7.35;4.25;;;;;;;;;;5092130;28;20031;-72
2021/01/03 03:36:05;;;;;;;10.90;4.07;;;;;;;;;;5092072;28;20040;-71
2021/01/03 03:38:31;;;;;;;6.93;4.38;;;;;;;;;;5107583;28;20024;-76
2021/01/03 03:40:57;;;;;;;7.75;4.57;;;;;;;;;;5091742;28;20028;-71
2021/01/03 03:43:23;;;;;;;7.97;4.10;;;;;;;;;;5091838;28;20020;-72
2021/01/03 03:45:49;;;;;;;8.20;4.13;;;;;;;;;;5091812;28;20036;-71
2021/01/03 03:48:16;;;;;;;7.70;4.65;;;;;;;;;;5107629;28;20111;-74
2021/01/03 03:50:42;;;;;;;8.95;4.47;;;;;;;;;;5091820;28;20529;-73
2021/01/03 03:53:08;;;;;;;6.95;4.05;;;;;;;;;;5091904;28;20047;-74
2021/01/03 03:55:34;;;;;;;9.60;4.53;;;;;;;;;;5091878;28;20027;-72
2021/01/03 03:58:00;;;;;;;8.20;4.35;;;;;;;;;;5091933;28;20020;-72
2021/01/03 04:00:26;;;;;;;7.07;3.80;;;;;;;;;;5107409;28;20471;-71
2021/01/03 04:02:52;;;;;;;8.48;4.65;;;;;;;;;;5091740;28;20528;-72
2021/01/03 04:05:20;;;;;;;7.57;4.15;;;;;;;;;;5091565;28;20054;-72
2021/01/03 04:07:46;;;;;;;9.52;4.45;;;;;;;;;;5107450;28;20020;-72
2021/01/03 04:10:12;;;;;;;6.15;3.80;;;;;;;;;;5107294;28;20360;-72
2021/01/03 04:12:38;;;;;;;8.57;4.25;;;;;;;;;;5091713;28;20109;-74
2021/01/03 04:15:13;;;;;;;7.45;4.28;;;;;;;;;;5107283;28;20028;-72
2021/01/03 04:17:39;;;;;;;7.63;4.22;;;;;;;;;;5107270;28;20093;-71
2021/01/03 04:20:06;;;;;;;6.43;4.07;;;;;;;;;;5091424;28;20099;-73
2021/01/03 04:22:32;;;;;;;6.90;4.18;;;;;;;;;;5091587;28;20054;-71
2021/01/03 04:24:59;;;;;;;6.75;3.60;;;;;;;;;;5095692;28;20035;-75
2021/01/03 04:27:25;;;;;;;9.23;4.22;;;;;;;;;;5095752;28;20404;-72
2021/01/03 04:29:51;;;;;;;7.75;4.43;;;;;;;;;;5111234;28;20020;-72
2021/01/03 04:32:18;;;;;;;6.10;3.92;;;;;;;;;;5095579;28;20026;-72
2021/01/03 04:34:44;;;;;;;11.90;4.40;;;;;;;;;;5095325;28;20548;-71
2021/01/03 04:37:11;;;;;;;6.60;3.78;;;;;;;;;;5095484;28;20024;-72
2021/01/03 04:39:37;;;;;;;8.73;4.45;;;;;;;;;;5095465;28;20078;-72
2021/01/03 04:42:08;;;;;;;10.07;4.38;;;;;;;;;;5095527;28;20108;-72
2021/01/03 04:44:35;;;;;;;7.07;4.38;;;;;;;;;;5111087;28;20391;-72
2021/01/03 04:47:27;;;;;;;6.90;4.13;;;;;;;;;;5095401;28;20501;-73
2021/01/03 04:49:59;;;;;;;7.23;4.30;;;;;;;;;;5071364;28;20042;-72
2021/01/03 04:52:43;;;;;;;7.68;3.85;;;;;;;;;;5095122;28;20258;-72
2021/01/03 04:55:10;;;;;;;7.20;4.15;;;;;;;;;;5095130;28;20026;-72
2021/01/03 04:57:43;;;;;;;8.15;4.22;;;;;;;;;;5095062;28;20024;-72
2021/01/03 05:00:09;;;;;;;6.82;3.90;;;;;;;;;;5094998;28;20059;-75
2021/01/03 05:02:35;;;;;;;6.40;3.88;;;;;;;;;;5095064;28;20028;-72
2021/01/03 05:05:21;;;;;;;6.47;3.72;;;;;;;;;;5110532;28;20043;-72
2021/01/03 05:07:52;;;;;;;6.22;3.92;;;;;;;;;;5110589;28;20410;-72
2021/01/03 05:10:23;;;;;;;7.43;3.95;;;;;;;;;;5094937;28;20081;-73
2021/01/03 05:12:52;;;;;;;7.38;3.80;;;;;;;;;;5094821;28;20117;-72
2021/01/03 05:15:23;;;;;;;5.97;3.63;;;;;;;;;;5110524;28;20610;-72
2021/01/03 05:17:49;;;;;;;8.60;4.18;;;;;;;;;;5110461;28;20379;-73
2021/01/03 05:20:16;;;;;;;7.70;3.90;;;;;;;;;;5094678;28;20494;-73
2021/01/03 05:22:43;;;;;;;6.90;3.83;;;;;;;;;;5094868;28;20169;-72
2021/01/03 05:25:10;;;;;;;8.43;4.20;;;;;;;;;;5094340;28;20621;-72
2021/01/03 05:27:36;;;;;;;7.18;4.20;;;;;;;;;;5109945;28;20435;-72
2021/01/03 05:30:26;;;;;;;10.52;4.13;;;;;;;;;;5094605;28;20126;-72
2021/01/03 05:32:52;;;;;;;7.72;4.28;;;;;;;;;;5090165;28;20115;-72
2021/01/03 05:35:29;;;;;;;12.18;4.32;;;;;;;;;;5072806;28;20613;-72
2021/01/03 05:37:56;;;;;;;9.73;4.45;;;;;;;;;;5073010;28;20122;-73
2021/01/03 05:40:28;;;;;;;8.35;3.92;;;;;;;;;;5073012;28;20442;-72
2021/01/03 05:43:12;;;;;;;17.10;4.80;;;;;;;;;;5073047;28;20036;-73
2021/01/03 05:45:54;;;;;;;8.75;4.00;;;;;;;;;;5054772;28;20070;-72
2021/01/03 05:48:22;;;;;;;6.77;4.17;;;;;;;;;;5054787;28;20028;-71
2021/01/03 05:50:49;;;;;;;7.93;4.00;;;;;;;;;;5072617;28;20016;-72
2021/01/03 05:53:18;;;;;;;8.45;4.20;;;;;;;;;;5072300;28;20088;-72
2021/01/03 05:55:58;;;;;;;7.03;3.88;;;;;;;;;;5071964;28;20031;-72
2021/01/03 05:58:27;;;;;;;6.82;3.92;;;;;;;;;;5071696;28;20108;-72
2021/01/03 06:00:53;;;;;;;7.65;4.10;;;;;;;;;;5053656;28;20013;-72
2021/01/03 06:03:24;;;;;;;7.30;4.03;;;;;;;;;;5053595;28;20021;-71
2021/01/03 06:06:01;;;;;;;7.18;3.78;;;;;;;;;;5071511;28;20048;-72
2021/01/03 06:08:28;;;;;;;7.88;4.10;;;;;;;;;;5071620;28;20649;-72
2021/01/03 06:10:55;;;;;;;13.82;4.70;;;;;;;;;;5053791;28;20028;-74
2021/01/03 06:13:23;;;;;;;9.90;4.45;;;;;;;;;;5053803;28;20365;-72
2021/01/03 06:15:59;;;;;;;8.10;4.40;;;;;;;;;;5071769;28;20031;-72
2021/01/03 06:18:31;;;;;;;7.53;3.90;;;;;;;;;;5071843;28;20044;-72
2021/01/03 06:20:58;;;;;;;7.15;4.18;;;;;;;;;;5053678;28;20024;-73
2021/01/03 06:23:35;;;;;;;10.32;4.88;;;;;;;;;;5071856;28;20537;-71
2021/01/03 06:26:07;;;;;;;6.25;3.88;;;;;;;;;;5072188;28;20040;-75
2021/01/03 06:28:44;;;;;;;7.50;4.15;;;;;;;;;;5072206;28;20017;-72
2021/01/03 06:31:28;;;;;;;7.00;3.90;;;;;;;;;;5072252;28;20098;-73
2021/01/03 06:37:05;;;;;;;8.57;4.28;;;;;;;;;;5068788;28;20411;-70
2021/01/03 06:39:35;;;;;;;6.70;4.03;;;;;;;;;;5067489;28;20040;-70
2021/01/03 06:42:03;;;;;;;8.18;4.38;;;;;;;;;;5068860;28;20017;-71
2021/01/03 06:44:38;;;;;;;8.20;4.25;;;;;;;;;;5067468;28;20036;-69
2021/01/03 06:47:19;;;;;;;6.28;3.83;;;;;;;;;;5067147;28;20031;-69
2021/01/03 06:50:02;;;;;;;6.25;4.00;;;;;;;;;;5067259;28;20029;-71
2021/01/03 06:52:48;;;;;;;6.25;3.47;;;;;;;;;;5068713;28;20116;-72
2021/01/03 06:55:23;;;;;;;7.03;4.03;;;;;;;;;;5056548;28;20041;-72
2021/01/03 06:58:08;;;;;;;6.40;3.80;;;;;;;;;;5068514;28;20021;-71
2021/01/03 07:00:34;;;;;;;7.50;3.90;;;;;;;;;;5068381;28;20029;-71
2021/01/03 07:03:19;;;;;;;7.95;4.00;;;;;;;;;;5068503;28;20025;-72
2021/01/03 07:05:49;;;;;;;6.03;3.80;;;;;;;;;;5068535;28;20081;-74
2021/01/03 07:08:16;;;;;;;5.72;3.38;;;;;;;;;;5068426;28;20096;-73
2021/01/03 07:10:43;;;;;;;7.00;3.60;;;;;;;;;;5068349;28;20024;-73
2021/01/03 07:13:28;;;;;;;5.60;3.50;;;;;;;;;;5068309;28;20052;-71
2021/01/03 07:15:55;;;;;;;5.88;3.63;;;;;;;;;;5068045;28;20075;-72
2021/01/03 07:18:23;;;;;;;7.90;4.03;;;;;;;;;;5068388;28;20028;-72
2021/01/03 07:20:53;;;;;;;6.40;3.42;;;;;;;;;;5068221;28;20468;-75
2021/01/03 07:23:30;;;;;;;8.18;4.15;;;;;;;;;;5066857;28;20019;-72
2021/01/03 07:26:08;;;;;;;6.53;3.67;;;;;;;;;;5068054;28;20032;-71
2021/01/03 07:28:35;;;;;;;6.40;3.85;;;;;;;;;;5067879;28;20048;-71
2021/01/03 07:31:03;;;;;;;6.95;3.47;;;;;;;;;;5067740;28;20078;-71
2021/01/03 07:33:51;;;;;;;6.35;3.60;;;;;;;;;;5067854;28;20029;-73
2021/01/03 07:36:20;;;;;;;7.35;3.50;;;;;;;;;;5066235;28;20051;-71
2021/01/03 07:39:15;;;;;;;7.63;3.35;;;;;;;;;;5067902;28;20021;-72
2021/01/03 07:41:42;;;;;;;8.45;3.50;;;;;;;;;;5047931;28;20041;-73
2021/01/03 07:44:10;;;;;;;5.60;3.22;;;;;;;;;;5067693;28;20480;-72
2021/01/03 07:46:49;;;;;;;5.50;3.05;;;;;;;;;;5061095;28;20021;-72
2021/01/03 07:49:24;;;;;;;6.30;3.63;;;;;;;;;;5054354;28;20029;-72
2021/01/03 07:51:50;;;;;;;5.32;2.92;;;;;;;;;;5053172;28;20090;-71
2021/01/03 07:54:16;;;;;;;5.57;3.30;;;;;;;;;;5054598;28;20036;-71
2021/01/03 07:56:42;;;;;;;6.43;3.30;;;;;;;;;;5054218;28;20040;-71
2021/01/03 07:59:08;;;;;;;5.43;3.15;;;;;;;;;;5054022;28;20025;-73
2021/01/03 08:01:37;;;;;;;6.45;3.40;;;;;;;;;;5052836;28;20021;-74
2021/01/03 08:04:31;;;;;;;6.13;3.47;;;;;;;;;;5052760;28;20021;-73
2021/01/03 08:06:56;;;;;;;;;;;;;;;;;;5053449;28;20032;-73
2021/01/03 08:09:27;;;;;;;7.00;3.55;;;;;;;;;;5053950;28;19951;-72
2021/01/03 08:12:00;;;;;;;6.07;3.30;;;;;;;;;;5054016;28;20124;-71
2021/01/03 08:14:28;;;;;;;5.25;3.15;;;;;;;;;;5053923;28;20376;-71
2021/01/03 08:17:00;;;;;;;5.45;2.88;;;;;;;;;;5053965;28;20029;-72
2021/01/03 08:19:27;;;;;;;6.10;3.30;;;;;;;;;;5053868;28;20106;-72
2021/01/03 08:21:57;;;;;;;5.93;3.40;;;;;;;;;;5053830;28;20021;-73
2021/01/03 08:24:24;;;;;;;5.82;3.28;;;;;;;;;;5052365;28;20558;-74
2021/01/03 08:26:52;;;;;;;8.48;3.40;;;;;;;;;;5053722;28;20022;-71
2021/01/03 08:29:22;;;;;;;6.35;3.45;;;;;;;;;;5052132;28;20455;-72
2021/01/03 08:31:59;;;;;;;6.30;3.20;;;;;;;;;;5053454;28;20083;-74
2021/01/03 08:34:30;;;;;;;5.72;3.03;;;;;;;;;;5051751;28;20083;-71
2021/01/03 08:36:57;;;;;;;5.60;3.10;;;;;;;;;;5053369;28;20029;-72
2021/01/03 08:39:25;;;;;;;5.95;3.38;;;;;;;;;;5053101;28;20096;-72
2021/01/03 08:41:56;;;;;;;6.18;3.10;;;;;;;;;;5053122;28;20028;-72
2021/01/03 08:44:23;;;;;;;5.43;3.10;;;;;;;;;;5053363;28;20694;-72
2021/01/03 08:46:49;;;;;;;8.73;3.50;;;;;;;;;;5050947;28;20033;-75
2021/01/03 08:49:16;;;;;;;6.53;3.63;;;;;;;;;;5052014;28;20029;-71
2021/01/03 08:51:42;;;;;;;5.30;3.03;;;;;;;;;;5051766;28;20021;-74
2021/01/03 08:54:10;;;;;;;7.63;3.88;;;;;;;;;;5051773;28;20376;-72
2021/01/03 08:56:37;;;;;;;6.40;3.08;;;;;;;;;;5053069;28;20040;-75
2021/01/03 08:59:04;;;;;;;8.57;3.53;;;;;;;;;;5052016;28;20017;-75
2021/01/03 09:01:31;;;;;;;6.05;3.30;;;;;;;;;;5051538;28;20080;-72
2021/01/03 09:03:59;;;;;;;7.40;3.45;;;;;;;;;;5051693;28;20108;-72
2021/01/03 09:06:26;;;;;;;8.80;4.00;;;;;;;;;;5051412;28;20025;-72
2021/01/03 09:08:53;;;;;;;11.95;3.78;;;;;;;;;;5052649;28;20492;-72
2021/01/03 09:11:19;;;;;;;9.98;3.33;;;;;;;;;;5052772;28;20068;-72
2021/01/03 09:13:50;;;;;;;13.70;4.07;;;;;;;;;;5046804;28;20436;-69
2021/01/03 09:16:33;;;;;;;6.85;3.17;;;;;;;;;;5035850;28;20087;-70
2021/01/03 09:18:59;;;;;;;6.70;3.50;;;;;;;;;;5032431;28;20053;-73
2021/01/03 09:21:25;;;;;;;8.95;3.50;;;;;;;;;;5051012;28;20047;-71
2021/01/03 09:23:58;;;;;;;9.23;3.83;;;;;;;;;;5051392;28;20028;-76
2021/01/03 09:26:32;;;;;;;6.40;3.25;;;;;;;;;;5049738;28;20426;-72
2021/01/03 09:29:06;;;;;;;11.73;3.33;;;;;;;;;;5041884;28;20029;-77
2021/01/03 09:31:32;;;;;;;7.53;3.58;;;;;;;;;;5050830;28;20423;-71
2021/01/03 09:34:17;;;;;;;8.60;3.40;;;;;;;;;;5051376;28;20009;-71
2021/01/03 09:36:56;;;;;;;6.40;3.55;;;;;;;;;;5051658;28;20041;-69
2021/01/03 09:39:37;;;;;;;7.10;3.70;;;;;;;;;;5051973;28;20017;-69
2021/01/03 09:42:03;;;;;;;6.32;3.28;;;;;;;;;;5046349;28;20074;-68
2021/01/03 09:44:48;;;;;;;7.90;3.67;;;;;;;;;;5047950;28;20468;-70
2021/01/03 09:47:15;;;;;;;8.07;3.55;;;;;;;;;;5050192;28;20158;-67
2021/01/03 09:49:44;;;;;;;5.93;3.55;;;;;;;;;;5051827;28;20101;-69
2021/01/03 09:52:18;;;;;;;6.70;3.35;;;;;;;;;;5050453;28;20056;-71
2021/01/03 09:54:44;;;;;;;6.57;3.70;;;;;;;;;;5051779;28;20623;-72
2021/01/03 09:57:19;;;;;;;6.18;3.35;;;;;;;;;;5050549;28;20124;-72
2021/01/03 09:59:53;;;;;;;6.05;3.28;;;;;;;;;;5040446;28;20026;-72
2021/01/03 10:02:19;;;;;;;8.88;3.40;;;;;;;;;;5032280;28;20033;-72
2021/01/03 10:04:46;;;;;;;6.38;3.30;;;;;;;;;;5051528;28;20048;-71
2021/01/03 10:07:19;;;;;;;5.90;3.38;;;;;;;;;;5051493;28;20048;-71
2021/01/03 10:09:44;;;;;;;;;;;;;;;;;;5037027;28;20029;-72
2021/01/03 10:12:18;;;;;;;6.20;3.58;;;;;;;;;;5031387;28;19907;-72
2021/01/03 10:14:44;;;;;;;5.75;3.35;;;;;;;;;;5031627;28;20029;-72
2021/01/03 10:17:18;;;;;;;7.53;3.65;;;;;;;;;;5032116;28;20505;-72
2021/01/03 10:19:44;;;;;;;8.70;3.92;;;;;;;;;;5031446;28;20030;-72
2021/01/03 10:22:27;;;;;;;4.85;3.05;;;;;;;;;;5046263;28;20154;-71
2021/01/03 10:24:53;;;;;;;;;;;;;;;;;;5051430;28;20025;-72
2021/01/03 10:27:19;;;;;;;7.07;3.35;;;;;;;;;;5051108;28;19907;-73
2021/01/03 10:29:45;;;;;;;7.82;3.80;;;;;;;;;;5051222;28;20476;-71
2021/01/03 10:32:11;;;;;;;8.05;3.83;;;;;;;;;;5051201;28;20484;-72
2021/01/03 10:34:37;;;;;;;6.45;3.55;;;;;;;;;;5031637;28;20473;-72
2021/01/03 10:37:05;;;;;;;5.88;3.65;;;;;;;;;;5031290;28;20038;-72
2021/01/03 10:39:31;;;;;;;6.75;4.10;;;;;;;;;;5031172;28;20021;-73
2021/01/03 10:41:58;;;;;;;6.38;3.63;;;;;;;;;;5031170;28;20026;-71
2021/01/03 10:44:24;;;;;;;7.13;3.80;;;;;;;;;;5029949;28;20470;-75
2021/01/03 10:46:50;;;;;;;7.45;3.75;;;;;;;;;;5031207;28;20036;-76
2021/01/03 10:49:17;;;;;;;6.53;3.50;;;;;;;;;;5031153;28;20026;-76
2021/01/03 10:51:44;;;;;;;6.35;3.58;;;;;;;;;;5030351;28;20029;-72
2021/01/03 10:54:12;;;;;;;6.53;3.50;;;;;;;;;;5029730;28;20029;-71
2021/01/03 10:56:38;;;;;;;7.68;3.65;;;;;;;;;;5031061;28;20388;-73
2021/01/03 10:59:06;;;;;;;7.50;4.10;;;;;;;;;;5050491;28;20033;-73
2021/01/03 11:01:32;;;;;;;6.35;3.53;;;;;;;;;;5050997;28;20477;-70
2021/01/03 11:03:58;;;;;;;7.13;3.80;;;;;;;;;;5050835;28;20025;-70
2021/01/03 11:06:24;;;;;;;7.70;4.07;;;;;;;;;;5050822;28;20096;-70
2021/01/03 11:08:50;;;;;;;6.72;3.60;;;;;;;;;;5031438;28;20108;-69
2021/01/03 11:11:21;;;;;;;6.55;3.80;;;;;;;;;;5030967;28;20389;-70
2021/01/03 11:13:47;;;;;;;7.75;3.75;;;;;;;;;;5041649;28;20021;-72
2021/01/03 11:16:13;;;;;;;6.30;3.83;;;;;;;;;;5049133;28;20615;-73
2021/01/03 11:18:39;;;;;;;6.75;3.63;;;;;;;;;;5050315;28;20108;-70
2021/01/03 11:21:10;;;;;;;6.95;3.80;;;;;;;;;;5050477;28;20029;-72
2021/01/03 11:23:37;;;;;;;6.53;3.95;;;;;;;;;;5048566;28;20475;-72
2021/01/03 11:26:03;;;;;;;7.32;4.25;;;;;;;;;;5034543;28;20027;-72
2021/01/03 11:28:29;;;;;;;6.82;4.40;;;;;;;;;;5046938;28;20065;-73
2021/01/03 11:30:55;;;;;;;6.28;3.58;;;;;;;;;;5053090;28;20025;-72
2021/01/03 11:33:21;;;;;;;8.60;4.35;;;;;;;;;;5054386;28;20060;-72
2021/01/03 11:35:47;;;;;;;8.38;4.20;;;;;;;;;;5053007;28;20450;-69
2021/01/03 11:38:14;;;;;;;7.18;3.97;;;;;;;;;;5054140;28;20360;-69
2021/01/03 11:40:40;;;;;;;7.55;4.10;;;;;;;;;;5052219;28;20064;-71
2021/01/03 11:43:06;;;;;;;6.95;3.80;;;;;;;;;;5034232;28;20026;-73
2021/01/03 11:45:32;;;;;;;6.13;3.83;;;;;;;;;;5034145;28;20028;-71
2021/01/03 11:47:58;;;;;;;8.35;4.13;;;;;;;;;;5033019;28;20033;-72
2021/01/03 11:50:24;;;;;;;7.60;4.50;;;;;;;;;;5034161;28;20423;-70
2021/01/03 11:52:51;;;;;;;7.60;4.13;;;;;;;;;;5034225;28;20026;-72
2021/01/03 11:55:18;;;;;;;8.73;4.20;;;;;;;;;;5032800;28;20496;-70
2021/01/03 11:57:44;;;;;;;6.40;4.15;;;;;;;;;;5033338;28;20421;-71
2021/01/03 12:00:13;;;;;;;7.05;4.47;;;;;;;;;;5033972;28;20025;-72
2021/01/03 12:02:39;;;;;;;8.02;4.30;;;;;;;;;;5032597;28;20014;-73
2021/01/03 12:05:06;;;;;;;7.95;4.53;;;;;;;;;;5042054;28;20094;-75
2021/01/03 12:07:32;;;;;;;8.70;4.97;;;;;;;;;;5050632;28;20013;-77
2021/01/03 12:09:58;;;;;;;8.55;4.78;;;;;;;;;;5051290;28;20033;-77
2021/01/03 12:12:24;;;;;;;7.00;4.32;;;;;;;;;;5051323;28;20065;-72
2021/01/03 12:14:50;;;;;;;9.98;4.50;;;;;;;;;;5049304;28;20030;-70
2021/01/03 12:17:18;;;;;;;8.88;4.65;;;;;;;;;;5045106;28;20082;-71
2021/01/03 12:19:44;;;;;;;7.57;4.43;;;;;;;;;;5050403;28;20021;-71
2021/01/03 12:22:10;;;;;;;10.85;5.10;;;;;;;;;;5051853;28;20028;-72
2021/01/03 12:24:37;;;;;;;8.13;5.13;;;;;;;;;;5052902;28;20532;-71
2021/01/03 12:27:03;;;;;;;11.55;5.18;;;;;;;;;;5052048;28;20419;-70
2021/01/03 12:29:29;;;;;;;9.57;4.72;;;;;;;;;;5053249;28;20021;-72
2021/01/03 12:31:57;;;;;;;9.98;4.40;;;;;;;;;;5049082;28;20013;-73
2021/01/03 12:34:24;;;;;;;11.57;5.30;;;;;;;;;;5033174;28;20491;-75
2021/01/03 12:36:50;;;;;;;8.90;4.85;;;;;;;;;;5032764;28;20513;-71
2021/01/03 12:39:18;;;;;;;13.68;5.38;;;;;;;;;;5033109;28;20028;-72
2021/01/03 12:41:44;;;;;;;14.40;5.60;;;;;;;;;;5033152;28;20502;-78
2021/01/03 12:44:10;;;;;;;11.40;5.45;;;;;;;;;;5032798;28;20100;-74
2021/01/03 12:46:38;;;;;;;10.82;5.43;;;;;;;;;;5032817;28;20025;-79
2021/01/03 12:49:06;;;;;;;10.52;5.97;;;;;;;;;;5036616;28;20029;-80
2021/01/03 12:51:32;;;;;;;9.88;5.35;;;;;;;;;;5053031;28;20044;-79
2021/01/03 12:53:58;;;;;;;10.63;6.32;;;;;;;;;;5051687;28;20021;-76
2021/01/03 12:56:26;;;;;;;10.95;6.15;;;;;;;;;;5052082;28;20040;-83
2021/01/03 12:58:58;;;;;;;10.75;6.20;;;;;;;;;;5051307;28;20032;-83
2021/01/03 13:01:26;;;;;;;15.73;7.07;;;;;;;;;;5052813;28;20021;-83
2021/01/03 13:03:52;;;;;;;10.85;6.00;;;;;;;;;;5051499;28;20054;-77
2021/01/03 13:06:18;;;;;;;9.90;4.85;;;;;;;;;;5051324;28;20031;-79
2021/01/03 13:08:44;;;;;;;8.27;5.07;;;;;;;;;;5051063;28;20033;-82
2021/01/03 13:11:10;;;;;;;9.80;5.88;;;;;;;;;;5052541;28;20580;-82
2021/01/03 13:13:36;;;;;;;11.43;6.20;;;;;;;;;;5052964;28;20062;-76
2021/01/03 13:16:02;;;;;;;11.25;5.95;;;;;;;;;;5052410;28;20033;-76
2021/01/03 13:18:28;;;;;;;10.50;5.97;;;;;;;;;;5052228;28;20032;-70
2021/01/03 13:20:55;;;;;;;10.98;6.18;;;;;;;;;;5051311;28;20116;-70
2021/01/03 13:23:21;;;;;;;12.43;6.90;;;;;;;;;;5045088;28;20060;-74
2021/01/03 13:25:47;;;;;;;10.80;6.30;;;;;;;;;;5032321;28;20025;-77
2021/01/03 13:28:13;;;;;;;10.45;6.03;;;;;;;;;;5043508;28;20388;-75
2021/01/03 13:30:39;;;;;;;9.80;6.13;;;;;;;;;;5052186;28;20079;-73
2021/01/03 13:33:05;;;;;;;8.63;5.47;;;;;;;;;;5051985;28;20021;-75
2021/01/03 13:35:31;;;;;;;9.82;6.53;;;;;;;;;;5051777;28;20496;-75
2021/01/03 13:37:58;;;;;;;9.15;5.25;;;;;;;;;;5052082;28;20448;-72
2021/01/03 13:40:25;;;;;;;9.10;5.53;;;;;;;;;;5044217;28;20021;-72
2021/01/03 13:42:52;;;;;;;9.57;5.45;;;;;;;;;;5032161;28;20072;-73
2021/01/03 13:45:18;;;;;;;11.02;5.82;;;;;;;;;;5031612;28;20017;-74
2021/01/03 13:47:44;;;;;;;11.30;5.30;;;;;;;;;;5032009;28;20057;-72
2021/01/03 13:50:10;;;;;;;14.05;5.68;;;;;;;;;;5030221;28;20420;-73
2021/01/03 13:52:36;;;;;;;9.23;5.65;;;;;;;;;;5049437;28;20443;-74
2021/01/03 13:55:04;;;;;;;10.60;5.38;;;;;;;;;;5051437;28;20078;-73
2021/01/03 13:57:30;;;;;;;8.70;5.65;;;;;;;;;;5042694;28;20030;-74
2021/01/03 13:59:56;;;;;;;9.95;6.03;;;;;;;;;;5030359;28;20025;-74
2021/01/03 14:02:22;;;;;;;9.23;5.32;;;;;;;;;;5031257;28;20029;-75
2021/01/03 14:04:48;;;;;;;8.30;4.97;;;;;;;;;;5042327;28;20025;-74
2021/01/03 14:07:14;;;;;;;9.32;5.53;;;;;;;;;;5049874;28;20075;-75
2021/01/03 14:09:41;;;;;;;12.75;5.47;;;;;;;;;;5049817;28;20072;-74
2021/01/03 14:12:07;;;;;;;9.20;5.55;;;;;;;;;;5051364;28;20021;-71
2021/01/03 14:14:34;;;;;;;9.82;6.05;;;;;;;;;;5040793;28;20432;-72
2021/01/03 14:17:01;;;;;;;11.90;5.70;;;;;;;;;;5031425;28;20056;-70
2021/01/03 14:19:28;;;;;;;9.40;5.43;;;;;;;;;;5031301;28;20028;-72
2021/01/03 14:21:54;;;;;;;7.95;5.28;;;;;;;;;;5031295;28;20025;-77
2021/01/03 14:24:21;;;;;;;9.70;5.65;;;;;;;;;;5031374;28;20022;-77
2021/01/03 14:26:48;;;;;;;9.95;5.93;;;;;;;;;;5031456;28;20480;-75
2021/01/03 14:29:19;;;;;;;14.60;6.13;;;;;;;;;;5030085;28;20030;-77
2021/01/03 14:31:45;;;;;;;8.68;5.68;;;;;;;;;;5030680;28;20022;-76
2021/01/03 14:34:34;;;;;;;11.45;4.93;;;;;;;;;;5030027;28;20022;-71
2021/01/03 14:37:19;;;;;;;10.55;5.88;;;;;;;;;;5024775;28;20054;-74
2021/01/03 14:39:45;;;;;;;13.38;6.25;;;;;;;;;;5031573;28;20080;-73
2021/01/03 14:42:12;;;;;;;8.73;5.45;;;;;;;;;;5041486;28;20021;-74
2021/01/03 14:44:38;;;;;;;9.50;6.18;;;;;;;;;;5050575;28;20029;-76
2021/01/03 14:47:20;;;;;;;10.85;6.65;;;;;;;;;;5049552;28;20527;-75
2021/01/03 14:50:05;;;;;;;8.32;5.05;;;;;;;;;;5038550;28;20564;-74
2021/01/03 14:52:40;;;;;;;10.23;5.55;;;;;;;;;;5051087;28;20088;-75
2021/01/03 14:55:37;;;;;;;13.40;6.32;;;;;;;;;;5050985;28;20036;-76